Time;durP1;ratioP1;P1;durP2;ratioP2;P2;SDS_P1;SDS_P2;PMS_P1;PMS_P2;Temp;Humidity;BMP_temperature;BMP_pressure;BME280_temperature;BME280_humidity;BME280_pressure;Samples;Min_cycle;Max_cycle;Signal;HPM_P1;HPM_P2
2022/02/14 00:01:22;;;;;;;24.40;12.13;;;;;;;-1.02;70.16;101525.88;1705477;83;21038;-75
2022/02/14 00:03:50;;;;;;;29.57;13.95;;;;;;;-1.03;70.16;101516.39;1719886;83;21019;-75
2022/02/14 00:06:17;;;;;;;36.40;16.82;;;;;;;-1.02;70.15;101509.47;1705387;83;21019;-75
2022/02/14 00:08:44;;;;;;;24.05;12.05;;;;;;;-1.03;70.14;101514.23;1707739;83;21022;-75
2022/02/14 00:11:12;;;;;;;17.82;9.90;;;;;;;-1.02;70.13;101511.61;1692366;83;21030;-75
2022/02/14 00:13:39;;;;;;;16.25;10.00;;;;;;;-1.04;70.10;101509.48;1700405;83;21446;-75
2022/02/14 00:16:07;;;;;;;16.77;9.48;;;;;;;-1.04;70.12;101504.74;1707433;83;21806;-75
2022/02/14 00:18:33;;;;;;;20.27;11.73;;;;;;;-1.05;70.11;101501.30;1710347;83;20978;-75
2022/02/14 00:21:02;;;;;;;18.50;9.78;;;;;;;-1.05;70.16;101502.59;1708605;83;21073;-75
2022/02/14 00:23:30;;;;;;;19.27;11.25;;;;;;;-1.05;70.13;101499.14;1693537;83;21092;-75
2022/02/14 00:25:57;;;;;;;11.45;7.58;;;;;;;-1.05;70.15;101493.95;1703101;83;20991;-75
2022/02/14 00:28:23;;;;;;;14.25;8.88;;;;;;;-1.05;70.13;101489.62;1706130;83;21801;-75
2022/02/14 00:30:50;;;;;;;15.45;8.95;;;;;;;-1.05;70.11;101486.18;1705421;83;21070;-76
2022/02/14 00:33:16;;;;;;;17.00;10.25;;;;;;;-1.06;70.12;101483.14;1713514;83;21045;-76
2022/02/14 00:35:43;;;;;;;14.55;9.00;;;;;;;-1.06;70.13;101493.51;1706975;83;21022;-75
2022/02/14 00:38:11;;;;;;;15.15;10.10;;;;;;;-1.08;70.16;101486.20;1692320;83;20979;-76
2022/02/14 00:40:38;;;;;;;16.62;8.55;;;;;;;-1.10;70.15;101484.08;1694470;83;22276;-75
2022/02/14 00:43:06;;;;;;;14.13;8.60;;;;;;;-1.10;70.18;101484.08;1706436;83;20952;-75
2022/02/14 00:45:33;;;;;;;13.08;8.73;;;;;;;-1.11;70.21;101483.66;1699492;83;21031;-75
2022/02/14 00:48:00;;;;;;;13.43;7.90;;;;;;;-1.12;70.17;101489.73;1704780;83;21007;-75
2022/02/14 00:50:27;;;;;;;14.00;8.95;;;;;;;-1.14;70.22;101480.67;1707056;83;20979;-75
2022/02/14 00:52:53;;;;;;;11.33;7.37;;;;;;;-1.15;70.23;101478.97;1692780;83;22423;-75
2022/02/14 00:55:19;;;;;;;12.43;8.55;;;;;;;-1.17;70.26;101482.84;1696289;83;20981;-75
2022/02/14 00:57:47;;;;;;;12.40;7.92;;;;;;;-1.19;70.26;101478.13;1711066;83;21405;-75
2022/02/14 01:00:14;;;;;;;15.65;10.05;;;;;;;-1.20;70.29;101486.78;1703772;83;21018;-75
2022/02/14 01:02:41;;;;;;;18.75;12.98;;;;;;;-1.21;70.31;101476.44;1711611;83;21034;-76
2022/02/14 01:05:08;;;;;;;12.73;7.85;;;;;;;-1.23;70.35;101476.47;1709511;83;21794;-75
2022/02/14 01:07:36;;;;;;;24.12;14.93;;;;;;;-1.25;70.39;101467.86;1705891;83;21022;-75
2022/02/14 01:10:05;;;;;;;14.85;7.75;;;;;;;-1.25;70.42;101472.19;1711544;81;21038;-75
2022/02/14 01:12:33;;;;;;;17.30;10.55;;;;;;;-1.26;70.46;101466.12;1705257;83;21022;-76
2022/02/14 01:15:04;;;;;;;19.07;10.93;;;;;;;-1.26;70.46;101471.30;1696664;82;21089;-75
2022/02/14 01:17:28;;;;;;;15.85;9.90;;;;;;;-1.27;70.44;101473.48;1708254;83;22232;-76
2022/02/14 01:19:55;;;;;;;13.35;8.38;;;;;;;-1.27;70.43;101472.19;1711170;83;21058;-75
2022/02/14 01:22:22;;;;;;;29.35;17.27;;;;;;;-1.29;70.43;101473.95;1693864;83;21034;-76
2022/02/14 01:24:49;;;;;;;16.27;9.65;;;;;;;-1.29;70.43;101471.80;1706261;83;21434;-75
2022/02/14 01:27:16;;;;;;;20.37;14.20;;;;;;;-1.30;70.43;101473.97;1708526;83;20970;-75
2022/02/14 01:29:43;;;;;;;17.10;12.90;;;;;;;-1.30;70.41;101471.37;1706534;83;21843;-75
2022/02/14 01:32:09;;;;;;;31.50;25.85;;;;;;;-1.32;70.41;101470.55;1692225;83;21077;-75
2022/02/14 01:34:36;;;;;;;15.30;10.40;;;;;;;-1.33;70.41;101472.73;1695932;83;21035;-76
2022/02/14 01:37:03;;;;;;;14.18;10.48;;;;;;;-1.35;70.42;101466.27;1666621;84;21015;-75
2022/02/14 01:39:29;;;;;;;15.95;10.32;;;;;;;-1.35;70.42;101466.27;1693152;83;21005;-76
2022/02/14 01:41:56;;;;;;;13.80;9.30;;;;;;;-1.37;70.40;101462.81;1665477;83;21865;-75
2022/02/14 01:44:49;;;;;;;15.38;9.13;;;;;;;-1.39;70.42;101463.72;1692055;84;21026;-75
2022/02/14 01:47:21;;;;;;;13.98;10.30;;;;;;;-1.42;70.46;101457.30;1699848;83;21003;-76
2022/02/14 01:49:48;;;;;;;14.15;10.13;;;;;;;-1.48;70.51;101455.18;1720538;83;20986;-76
2022/02/14 01:52:16;;;;;;;14.55;8.90;;;;;;;-1.51;70.54;101450.05;1699423;83;20983;-76
2022/02/14 01:54:48;;;;;;;12.43;7.92;;;;;;;-1.53;70.64;101449.22;1702224;83;21815;-76
2022/02/14 01:57:16;;;;;;;14.63;8.88;;;;;;;-1.56;70.68;101444.05;1703087;83;21129;-75
2022/02/14 01:59:44;;;;;;;13.25;8.65;;;;;;;-1.56;70.77;101441.90;1714811;83;21034;-75
2022/02/14 02:02:11;;;;;;;12.30;8.05;;;;;;;-1.57;70.84;101440.19;1693866;83;21053;-75
2022/02/14 02:04:37;;;;;;;14.87;8.53;;;;;;;-1.56;70.86;101441.90;1705161;83;20979;-74
2022/02/14 02:07:04;;;;;;;11.88;7.47;;;;;;;-1.57;70.87;101438.89;1694999;83;22249;-75
2022/02/14 02:09:31;;;;;;;10.53;6.97;;;;;;;-1.58;70.89;101430.27;1699118;83;21022;-75
2022/02/14 02:14:43;;;;;;;11.70;8.63;;;;;;;-1.60;70.88;101430.73;1688206;83;21038;-75
2022/02/14 02:17:10;;;;;;;12.23;8.08;;;;;;;-1.61;70.89;101435.94;1704285;83;21540;-76
2022/02/14 02:19:36;;;;;;;12.50;8.03;;;;;;;-1.62;70.93;101423.42;1694666;83;21794;-76
2022/02/14 02:22:03;;;;;;;11.90;8.28;;;;;;;-1.63;70.93;101421.72;1693379;83;21580;-75
2022/02/14 02:24:29;;;;;;;13.22;8.18;;;;;;;-1.64;70.94;101421.70;1666687;83;21085;-75
2022/02/14 02:27:04;;;;;;;11.48;8.03;;;;;;;-1.65;70.92;101429.91;1660659;84;20961;-76
2022/02/14 02:29:38;;;;;;;11.57;7.40;;;;;;;-1.68;70.94;101426.52;1698823;83;21027;-76
2022/02/14 02:32:06;;;;;;;;;;;;;;;-1.70;70.94;101425.69;1646398;85;22178;-76
2022/02/14 02:34:38;;;;;;;15.30;8.35;;;;;;;-1.74;71.00;101425.73;1697067;83;20292;-75
2022/02/14 02:37:04;;;;;;;13.03;8.15;;;;;;;-1.79;71.08;101423.63;1692434;84;21015;-76
2022/02/14 02:39:31;;;;;;;13.55;8.60;;;;;;;-1.82;71.15;101422.81;1715608;83;21022;-75
2022/02/14 02:41:58;;;;;;;14.50;8.35;;;;;;;-1.84;71.21;101418.92;1708679;83;20970;-76
2022/02/14 02:44:25;;;;;;;12.63;8.63;;;;;;;-1.87;71.28;101418.97;1691959;83;21818;-75
2022/02/14 02:46:52;;;;;;;12.98;8.28;;;;;;;-1.89;71.34;101420.72;1699751;83;21029;-75
2022/02/14 02:49:21;;;;;;;14.13;9.00;;;;;;;-1.91;71.38;101416.45;1700086;83;21026;-75
2022/02/14 02:51:50;;;;;;;14.13;9.03;;;;;;;-1.94;71.44;101419.05;1691093;83;21505;-75
2022/02/14 02:54:17;;;;;;;13.88;8.40;;;;;;;-1.97;71.51;101408.73;1691918;83;21035;-76
2022/02/14 02:56:46;;;;;;;15.03;8.88;;;;;;;-1.99;71.55;101418.25;1697295;83;21836;-76
2022/02/14 02:59:12;;;;;;;14.70;9.03;;;;;;;-2.02;71.64;101421.31;1692981;83;21522;-76
2022/02/14 03:01:39;;;;;;;15.13;9.83;;;;;;;-2.05;71.66;101417.88;1716774;83;21417;-75
2022/02/14 03:04:10;;;;;;;16.57;9.45;;;;;;;-2.07;71.74;101421.78;1710478;83;21077;-76
2022/02/14 03:06:37;;;;;;;15.32;9.68;;;;;;;-2.08;71.78;101414.89;1649706;85;20985;-76
2022/02/14 03:09:06;;;;;;;14.87;10.00;;;;;;;-2.10;71.79;101422.26;1675305;84;22275;-75
2022/02/14 03:11:34;;;;;;;14.73;9.58;;;;;;;-2.12;71.85;101419.69;1683999;84;21484;-76
2022/02/14 03:14:01;;;;;;;12.58;8.95;;;;;;;-2.14;71.90;101417.97;1694134;84;21546;-76
2022/02/14 03:16:28;;;;;;;12.15;8.10;;;;;;;-2.16;71.92;101417.98;1689135;83;21479;-75
2022/02/14 03:18:54;;;;;;;15.32;8.90;;;;;;;-2.16;71.99;101417.13;1690134;84;21420;-76
2022/02/14 03:21:21;;;;;;;15.78;9.85;;;;;;;-2.17;72.03;101412.84;1674227;84;21767;-75
2022/02/14 03:23:48;;;;;;;14.40;9.28;;;;;;;-2.19;72.12;101411.56;1683493;84;21436;-75
2022/02/14 03:26:19;;;;;;;14.53;8.83;;;;;;;-2.20;72.22;101411.58;1656583;85;21039;-75
2022/02/14 03:28:48;;;;;;;11.48;8.48;;;;;;;-2.18;72.29;101408.09;1676023;84;21139;-75
2022/02/14 03:31:15;;;;;;;13.58;8.33;;;;;;;-2.17;72.32;101410.25;1697910;84;21013;-76
2022/02/14 03:33:43;;;;;;;11.75;7.78;;;;;;;-2.16;72.37;101410.66;1697026;84;21863;-76
2022/02/14 03:36:11;;;;;;;12.73;7.72;;;;;;;-2.16;72.40;101406.34;1653098;85;21502;-76
2022/02/14 03:38:39;;;;;;;14.07;8.08;;;;;;;-2.14;72.39;101406.32;1675794;84;21043;-77
2022/02/14 03:41:05;;;;;;;12.95;7.50;;;;;;;-2.15;72.41;101411.08;1686732;84;20977;-77
2022/02/14 03:43:33;;;;;;;10.43;6.85;;;;;;;-2.15;72.41;101408.05;1691264;84;21028;-77
2022/02/14 03:45:59;;;;;;;13.75;7.37;;;;;;;-2.16;72.48;101410.66;1676406;84;21708;-77
2022/02/14 03:48:26;;;;;;;12.45;8.00;;;;;;;-2.18;72.51;101412.42;1687707;84;20969;-76
2022/02/14 03:50:53;;;;;;;12.05;7.20;;;;;;;-2.19;72.54;101406.39;1673323;84;21016;-77
2022/02/14 03:53:20;;;;;;;12.58;7.35;;;;;;;-2.20;72.55;101407.70;1675906;84;21092;-76
2022/02/14 03:55:47;;;;;;;12.25;7.42;;;;;;;-2.21;72.57;101409.44;1689560;84;20985;-75
2022/02/14 03:58:14;;;;;;;14.10;7.67;;;;;;;-2.21;72.56;101408.58;1663336;84;22257;-76
2022/02/14 04:00:41;;;;;;;17.73;7.45;;;;;;;-2.22;72.53;101404.25;1687251;84;21067;-75
2022/02/14 04:03:08;;;;;;;11.18;6.90;;;;;;;-2.24;72.58;101404.70;1674650;84;21028;-76
2022/02/14 04:05:35;;;;;;;14.53;7.78;;;;;;;-2.25;72.58;101407.73;1665488;84;20996;-76
2022/02/14 04:08:01;;;;;;;13.08;7.30;;;;;;;-2.27;72.57;101403.02;1677740;84;21448;-75
2022/02/14 04:10:28;;;;;;;11.43;7.10;;;;;;;-2.29;72.62;101410.38;1682578;84;22458;-76
2022/02/14 04:12:55;;;;;;;11.85;7.62;;;;;;;-2.34;72.61;101402.21;1684097;84;21476;-76
2022/02/14 04:15:22;;;;;;;12.75;7.62;;;;;;;-2.36;72.59;101407.84;1691128;84;21020;-75
2022/02/14 04:17:49;;;;;;;10.60;6.80;;;;;;;-2.38;72.60;101398.39;1683173;84;20989;-76
2022/02/14 04:20:16;;;;;;;12.43;7.35;;;;;;;-2.40;72.63;101404.02;1675720;84;20981;-76
2022/02/14 04:22:42;;;;;;;11.38;7.60;;;;;;;-2.41;72.65;101395.84;1682565;84;21791;-76
2022/02/14 04:25:11;;;;;;;11.05;7.58;;;;;;;-2.44;72.67;101399.30;1678820;84;20957;-76
2022/02/14 04:27:37;;;;;;;11.65;6.90;;;;;;;-2.44;72.67;101407.49;1675774;84;21537;-76
2022/02/14 04:30:06;;;;;;;13.15;7.37;;;;;;;-2.45;72.66;101399.31;1698088;84;20981;-75
2022/02/14 04:32:34;;;;;;;10.70;6.70;;;;;;;-2.47;72.67;101403.22;1679860;84;21033;-75
2022/02/14 04:35:00;;;;;;;13.85;7.80;;;;;;;-2.47;72.71;101407.09;1699798;84;21746;-76
2022/02/14 04:37:27;;;;;;;15.60;8.78;;;;;;;-2.47;72.70;101410.97;1703862;84;21401;-76
2022/02/14 04:39:53;;;;;;;12.18;7.62;;;;;;;-2.49;72.70;101403.67;1704637;81;21022;-76
2022/02/14 04:42:20;;;;;;;11.63;7.53;;;;;;;-2.49;72.69;101402.38;1705710;83;21064;-74
2022/02/14 04:44:46;;;;;;;13.53;7.67;;;;;;;-2.50;72.72;101401.96;1715073;83;20981;-76
2022/02/14 04:47:13;;;;;;;13.05;7.40;;;;;;;-2.52;72.73;101399.80;1715204;83;22190;-76
2022/02/14 04:49:39;;;;;;;11.22;6.90;;;;;;;-2.52;72.76;101404.11;1710327;83;21029;-75
2022/02/14 04:52:06;;;;;;;13.68;8.00;;;;;;;-2.53;72.81;101403.26;1695869;83;21420;-76
2022/02/14 04:54:33;;;;;;;13.60;7.40;;;;;;;-2.55;72.84;101402.86;1702947;83;21479;-76
2022/02/14 04:56:59;;;;;;;13.10;7.10;;;;;;;-2.58;72.84;101406.34;1708162;83;21452;-76
2022/02/14 04:59:25;;;;;;;12.63;7.72;;;;;;;-2.58;72.86;101403.75;1687333;83;22149;-76
2022/02/14 05:01:52;;;;;;;12.05;6.97;;;;;;;-2.60;72.85;101407.66;1690317;83;21024;-75
2022/02/14 05:04:19;;;;;;;12.03;7.60;;;;;;;-2.62;72.95;101416.27;1701169;83;20973;-76
2022/02/14 05:06:46;;;;;;;13.43;7.53;;;;;;;-2.63;72.92;101412.83;1699255;83;21496;-76
2022/02/14 05:09:12;;;;;;;17.17;8.10;;;;;;;-2.65;72.94;101414.58;1706950;83;21452;-77
2022/02/14 05:11:39;;;;;;;12.75;7.80;;;;;;;-2.66;73.00;101412.02;1696775;83;22468;-79
2022/02/14 05:14:06;;;;;;;11.60;8.08;;;;;;;-2.67;73.07;101414.17;1711359;83;20973;-75
2022/02/14 05:16:32;;;;;;;13.10;8.80;;;;;;;-2.70;73.10;101412.89;1700586;83;21131;-74
2022/02/14 05:18:59;;;;;;;12.10;7.83;;;;;;;-2.72;73.16;101419.80;1698950;83;20988;-76
2022/02/14 05:21:26;;;;;;;11.78;7.60;;;;;;;-2.74;73.23;101418.97;1706307;83;21029;-77
2022/02/14 05:23:52;;;;;;;12.90;8.48;;;;;;;-2.75;73.29;101421.13;1712734;83;21848;-76
2022/02/14 05:26:20;;;;;;;14.85;9.33;;;;;;;-2.74;73.34;101425.00;1687395;83;21049;-78
2022/02/14 05:28:46;;;;;;;14.18;8.23;;;;;;;-2.76;73.39;101425.45;1685901;83;21071;-75
2022/02/14 05:31:13;;;;;;;13.88;7.42;;;;;;;-2.74;73.44;101429.31;1696052;83;21071;-81
2022/02/14 05:33:41;;;;;;;14.15;8.03;;;;;;;-2.76;73.47;101431.91;1687806;83;21049;-73
2022/02/14 05:36:10;;;;;;;10.72;7.35;;;;;;;-2.75;73.50;101435.36;1690802;83;21115;-74
2022/02/14 05:38:36;;;;;;;12.43;8.05;;;;;;;-2.73;73.51;101440.08;1672158;83;21025;-77
2022/02/14 05:41:03;;;;;;;10.68;7.20;;;;;;;-2.72;73.52;101441.34;1694838;83;21024;-73
2022/02/14 05:43:29;;;;;;;13.68;7.78;;;;;;;-2.69;73.53;101448.25;1702776;83;21614;-76
2022/02/14 05:45:56;;;;;;;12.78;7.80;;;;;;;-2.69;73.54;101456.86;1684627;84;21488;-77
2022/02/14 05:48:26;;;;;;;13.62;7.47;;;;;;;-2.67;73.58;101449.09;1680686;84;22481;-75
2022/02/14 05:50:52;;;;;;;12.65;7.75;;;;;;;-2.67;73.60;101448.65;1684220;84;21029;-75
2022/02/14 05:53:18;;;;;;;13.03;7.75;;;;;;;-2.64;73.61;101458.10;1675262;84;20989;-76
2022/02/14 05:55:45;;;;;;;11.48;7.97;;;;;;;-2.62;73.63;101449.89;1679788;84;21309;-75
2022/02/14 05:58:11;;;;;;;11.53;7.67;;;;;;;-2.60;73.67;101458.09;1683622;84;21536;-76
2022/02/14 06:00:39;;;;;;;14.60;8.35;;;;;;;-2.56;73.72;101459.34;1689525;84;21818;-76
2022/02/14 06:03:05;;;;;;;12.65;8.15;;;;;;;-2.53;73.74;101454.99;1675714;85;21445;-76
2022/02/14 06:05:33;;;;;;;14.43;8.48;;;;;;;-2.49;73.77;101456.70;1681964;84;21523;-76
2022/02/14 06:08:00;;;;;;;12.03;7.40;;;;;;;-2.44;73.76;101455.35;1690245;84;21455;-75
2022/02/14 06:10:27;;;;;;;12.50;7.85;;;;;;;-2.40;73.67;101449.30;1683029;84;21532;-76
2022/02/14 06:12:53;;;;;;;12.07;8.05;;;;;;;-2.36;73.67;101458.30;1680116;84;23027;-76
2022/02/14 06:15:21;;;;;;;12.85;7.58;;;;;;;-2.32;73.58;101452.24;1691646;84;20949;-76
2022/02/14 06:17:48;;;;;;;12.70;8.30;;;;;;;-2.27;73.57;101451.33;1691180;84;20982;-76
2022/02/14 06:20:15;;;;;;;14.07;8.08;;;;;;;-2.22;73.41;101459.48;1704032;83;21637;-76
2022/02/14 06:22:42;;;;;;;15.20;9.48;;;;;;;-2.18;73.35;101449.95;1695714;84;21013;-76
2022/02/14 06:25:09;;;;;;;17.62;9.95;;;;;;;-2.11;73.34;101456.78;1679245;84;21842;-76
2022/02/14 06:27:36;;;;;;;13.98;9.88;;;;;;;-2.05;73.28;101454.11;1697573;84;21027;-76
2022/02/14 06:30:04;;;;;;;13.25;9.65;;;;;;;-2.00;73.08;101453.64;1704099;84;21480;-77
2022/02/14 06:32:32;;;;;;;13.03;8.45;;;;;;;-1.95;73.03;101452.28;1704029;83;21013;-77
2022/02/14 06:35:02;;;;;;;13.35;8.18;;;;;;;-1.90;72.99;101449.23;1703968;84;20978;-77
2022/02/14 06:37:29;;;;;;;14.60;7.58;;;;;;;-1.83;72.95;101449.59;1701927;84;21843;-75
2022/02/14 06:39:55;;;;;;;12.23;8.13;;;;;;;-1.77;72.83;101458.56;1694751;84;21144;-76
2022/02/14 06:42:23;;;;;;;10.13;6.75;;;;;;;-1.71;72.72;101451.17;1686294;81;21026;-76
2022/02/14 06:44:50;;;;;;;11.00;7.47;;;;;;;-1.66;72.45;101455.84;1704131;84;21116;-75
2022/02/14 06:47:16;;;;;;;12.37;7.65;;;;;;;-1.63;72.37;101451.94;1704063;84;21436;-77
2022/02/14 06:49:43;;;;;;;12.25;7.17;;;;;;;-1.57;72.34;101460.92;1684161;84;21742;-76
2022/02/14 06:52:09;;;;;;;9.35;6.55;;;;;;;-1.51;72.30;101460.41;1654152;85;21416;-76
2022/02/14 06:54:36;;;;;;;12.68;7.62;;;;;;;-1.43;72.23;101459.03;1675708;85;21060;-75
2022/02/14 06:57:03;;;;;;;11.22;6.58;;;;;;;-1.34;72.15;101463.23;1676654;84;21069;-75
2022/02/14 06:59:30;;;;;;;11.12;6.62;;;;;;;-1.23;71.99;101462.66;1675759;85;21551;-75
2022/02/14 07:01:57;;;;;;;10.93;6.90;;;;;;;-1.16;71.70;101458.67;1701639;84;21766;-75
2022/02/14 07:04:23;;;;;;;11.20;6.78;;;;;;;-1.09;71.37;101459.42;1689950;84;21524;-75
2022/02/14 07:06:50;;;;;;;10.50;6.80;;;;;;;-1.06;71.01;101452.91;1685265;84;21109;-76
2022/02/14 07:09:17;;;;;;;11.95;6.87;;;;;;;-1.01;70.81;101458.02;1686655;84;20974;-76
2022/02/14 07:11:44;;;;;;;10.03;6.78;;;;;;;-0.98;70.40;101459.26;1675807;84;21029;-76
2022/02/14 07:14:11;;;;;;;12.18;6.83;;;;;;;-0.95;70.04;101452.75;1683345;84;21851;-76
2022/02/14 07:16:39;;;;;;;11.25;7.10;;;;;;;-0.94;69.44;101455.32;1677732;84;21049;-77
2022/02/14 07:19:07;;;;;;;11.28;6.87;;;;;;;-0.91;69.33;101453.97;1684154;84;20981;-77
2022/02/14 07:21:33;;;;;;;11.63;6.70;;;;;;;-0.86;69.14;101461.70;1702153;84;21025;-77
2022/02/14 07:24:00;;;;;;;11.35;7.08;;;;;;;-0.80;68.91;101462.88;1684116;83;21077;-77
2022/02/14 07:26:26;;;;;;;12.93;7.17;;;;;;;-0.73;68.73;101470.99;1693042;84;21751;-78
2022/02/14 07:28:56;;;;;;;11.35;7.20;;;;;;;-0.67;68.60;101465.72;1688404;84;20962;-78
2022/02/14 07:31:23;;;;;;;12.88;6.67;;;;;;;-0.61;68.18;101464.31;1685129;84;21076;-77
2022/02/14 07:33:49;;;;;;;10.93;6.65;;;;;;;-0.56;67.85;101455.17;1703052;84;21422;-77
2022/02/14 07:36:16;;;;;;;9.78;6.55;;;;;;;-0.51;67.67;101456.38;1700650;84;21045;-77
2022/02/14 07:38:42;;;;;;;11.88;7.25;;;;;;;-0.44;67.61;101457.99;1704226;84;22157;-77
2022/02/14 07:41:09;;;;;;;13.58;7.35;;;;;;;-0.37;67.51;101460.47;1706402;83;20957;-76
2022/02/14 07:43:36;;;;;;;12.33;7.20;;;;;;;-0.29;67.43;101456.42;1688062;83;20985;-77
2022/02/14 07:46:02;;;;;;;11.70;6.72;;;;;;;-0.21;66.96;101457.14;1686453;83;21466;-78
2022/02/14 07:48:29;;;;;;;9.65;6.45;;;;;;;-0.16;66.81;101451.89;1703812;83;20965;-77
2022/02/14 07:50:56;;;;;;;9.75;6.97;;;;;;;-0.13;66.47;101451.38;1712484;83;21833;-78
2022/02/14 07:53:24;;;;;;;11.95;6.95;;;;;;;-0.10;66.27;101452.61;1687028;83;21016;-77
2022/02/14 07:55:51;;;;;;;11.22;7.10;;;;;;;-0.06;66.19;101447.80;1712749;83;21588;-78
2022/02/14 07:58:17;;;;;;;11.43;7.47;;;;;;;-0.01;66.28;101448.55;1715172;83;20982;-78
2022/02/14 08:00:43;;;;;;;12.00;6.97;;;;;;;0.09;66.25;101447.08;1709654;83;21009;-80
2022/02/14 08:03:11;;;;;;;13.43;7.12;;;;;;;0.19;66.12;101440.81;1694432;83;21867;-80
2022/02/14 08:05:37;;;;;;;11.28;7.20;;;;;;;0.24;65.86;101441.16;1691576;83;20977;-75
2022/02/14 08:08:04;;;;;;;11.35;6.60;;;;;;;0.28;65.56;101438.89;1686466;85;21060;-73
2022/02/14 08:10:31;;;;;;;13.75;8.23;;;;;;;0.34;65.49;101440.52;1694118;83;21045;-72
2022/02/14 08:12:57;;;;;;;12.30;7.65;;;;;;;0.39;65.51;101434.80;1703105;83;21383;-73
2022/02/14 08:15:24;;;;;;;11.78;7.33;;;;;;;0.47;65.34;101431.58;1715084;83;21798;-72
2022/02/14 08:17:51;;;;;;;15.53;10.72;;;;;;;0.55;65.06;101432.28;1715067;83;21040;-73
2022/02/14 08:20:18;;;;;;;13.45;8.65;;;;;;;0.63;65.13;101433.87;1712221;81;20986;-71
2022/02/14 08:22:46;;;;;;;13.95;8.90;;;;;;;0.73;65.35;101431.48;1698636;83;21009;-73
2022/02/14 08:25:13;;;;;;;12.80;8.53;;;;;;;0.89;65.51;101428.95;1666931;85;21037;-73
2022/02/14 08:27:40;;;;;;;13.45;8.90;;;;;;;0.99;64.62;101426.55;1713157;83;21837;-70
2022/02/14 08:30:09;;;;;;;17.10;9.00;;;;;;;0.99;64.04;101429.16;1699157;83;20975;-76
2022/02/14 08:32:35;;;;;;;13.43;8.15;;;;;;;0.97;63.84;101432.69;1706591;83;21527;-76
2022/02/14 08:35:02;;;;;;;17.10;9.28;;;;;;;0.99;64.19;101434.36;1717123;82;21414;-78
2022/02/14 08:37:28;;;;;;;19.52;11.85;;;;;;;1.07;64.18;101436.79;1684558;83;20978;-78
2022/02/14 08:39:55;;;;;;;17.57;9.88;;;;;;;1.17;64.27;101438.73;1701523;82;21836;-77
2022/02/14 08:42:22;;;;;;;15.25;8.85;;;;;;;1.29;64.10;101441.89;1714874;82;21505;-78
2022/02/14 08:44:49;;;;;;;16.07;8.80;;;;;;;1.42;63.81;101439.83;1693424;83;20979;-77
2022/02/14 08:47:15;;;;;;;14.15;8.08;;;;;;;1.54;63.62;101436.91;1696280;83;21030;-77
2022/02/14 08:49:42;;;;;;;14.58;7.95;;;;;;;1.67;63.08;101427.06;1705652;83;21456;-77
2022/02/14 08:52:08;;;;;;;16.07;8.60;;;;;;;1.76;62.24;101435.94;1702858;83;21832;-75
2022/02/14 08:54:35;;;;;;;14.70;9.03;;;;;;;1.81;62.05;101435.81;1695083;83;20957;-77
2022/02/14 08:57:02;;;;;;;13.68;8.25;;;;;;;1.89;61.33;101439.07;1703885;83;21026;-75
2022/02/14 08:59:28;;;;;;;13.15;9.13;;;;;;;1.90;60.85;101435.12;1691834;84;21074;-75
2022/02/14 09:01:56;;;;;;;17.02;9.25;;;;;;;1.95;61.41;101432.41;1700758;83;21988;-74
2022/02/14 09:04:23;;;;;;;16.73;9.20;;;;;;;2.06;61.40;101418.63;1710858;83;22462;-76
2022/02/14 09:06:49;;;;;;;16.37;9.50;;;;;;;2.14;61.14;101424.49;1698823;83;21203;-73
2022/02/14 09:09:20;;;;;;;15.93;8.80;;;;;;;2.18;61.20;101420.89;1674848;84;21431;-74
2022/02/14 09:11:47;;;;;;;14.30;8.15;;;;;;;2.25;60.72;101421.58;1662521;85;20997;-74
2022/02/14 09:14:14;;;;;;;12.28;7.03;;;;;;;2.29;60.24;101418.83;1674900;83;21565;-74
2022/02/14 09:16:42;;;;;;;11.55;6.95;;;;;;;2.34;59.47;101407.44;1675991;85;21837;-72
2022/02/14 09:19:10;;;;;;;12.53;7.37;;;;;;;2.40;58.17;101407.23;1697926;83;20987;-75
2022/02/14 09:21:38;;;;;;;11.63;7.12;;;;;;;2.43;57.68;101403.26;1696037;83;20997;-75
2022/02/14 09:24:05;;;;;;;11.45;6.85;;;;;;;2.50;58.42;101398.24;1674697;84;21078;-73
2022/02/14 09:26:31;;;;;;;9.65;6.05;;;;;;;2.57;57.50;101401.08;1706371;83;21148;-74
2022/02/14 09:28:58;;;;;;;10.00;6.25;;;;;;;2.61;56.63;101394.04;1692057;83;21807;-73
2022/02/14 09:31:25;;;;;;;11.43;6.50;;;;;;;2.63;55.64;101395.69;1713586;83;21011;-74
2022/02/14 09:33:51;;;;;;;9.00;5.53;;;;;;;2.64;55.96;101388.72;1672445;83;21022;-74
2022/02/14 09:36:18;;;;;;;11.83;5.80;;;;;;;2.71;55.73;101383.28;1711984;83;20995;-75
2022/02/14 09:38:48;;;;;;;8.78;5.60;;;;;;;2.81;55.82;101377.33;1705590;83;20995;-77
2022/02/14 09:41:16;;;;;;;10.00;5.03;;;;;;;2.93;55.24;101369.09;1691842;84;21825;-78
2022/02/14 09:43:43;;;;;;;8.90;5.30;;;;;;;3.04;54.55;101368.75;1685871;83;21030;-76
2022/02/14 09:46:12;;;;;;;7.40;4.80;;;;;;;3.13;54.04;101369.77;1687701;83;21042;-75
2022/02/14 09:48:40;;;;;;;6.80;4.40;;;;;;;3.20;53.80;101361.28;1690249;85;20998;-74
2022/02/14 09:51:07;;;;;;;9.03;4.50;;;;;;;3.22;53.03;101351.19;1704203;83;20994;-76
2022/02/14 09:53:34;;;;;;;6.95;4.08;;;;;;;3.27;52.65;101349.26;1700892;82;22635;-76
2022/02/14 09:56:02;;;;;;;6.55;4.10;;;;;;;3.31;51.59;101344.80;1689320;84;21443;-75
2022/02/14 09:58:29;;;;;;;7.85;4.03;;;;;;;3.37;51.42;101347.19;1690000;85;20972;-75
2022/02/14 10:00:55;;;;;;;8.73;4.55;;;;;;;3.46;50.42;101348.18;1692492;83;20993;-74
2022/02/14 10:03:23;;;;;;;7.42;3.87;;;;;;;3.56;50.73;101335.66;1683477;83;21075;-77
2022/02/14 10:05:52;;;;;;;7.20;4.20;;;;;;;3.67;49.06;101343.54;1639121;85;22777;-80
2022/02/14 10:08:27;;;;;;;6.95;3.85;;;;;;;3.74;49.16;101338.47;1689444;84;21583;-77
2022/02/14 10:11:11;;;;;;;7.97;3.85;;;;;;;3.87;49.71;101344.59;1699057;84;21466;-79
2022/02/14 10:13:38;;;;;;;8.25;3.90;;;;;;;4.03;49.13;101337.88;1692622;84;21428;-78
2022/02/14 10:16:12;;;;;;;5.70;3.50;;;;;;;4.11;48.13;101333.67;1680154;84;20965;-77
2022/02/14 10:18:39;;;;;;;8.93;4.30;;;;;;;4.16;48.39;101333.91;1690400;85;21847;-75
2022/02/14 10:21:25;;;;;;;8.00;4.03;;;;;;;4.25;48.36;101323.56;1674006;84;21016;-85
2022/02/14 10:24:13;;;;;;;6.45;3.80;;;;;;;4.26;47.30;101327.42;1686627;84;21170;-74
2022/02/14 10:26:49;;;;;;;6.67;3.33;;;;;;;4.29;47.08;101329.91;1672276;85;21336;-74
2022/02/14 10:29:25;;;;;;;7.08;3.58;;;;;;;4.35;45.75;101325.37;1666657;85;20864;-74
2022/02/14 10:31:55;;;;;;;5.97;3.62;;;;;;;4.34;46.32;101330.17;1695711;84;22379;-73
2022/02/14 10:34:40;;;;;;;8.75;4.45;;;;;;;4.40;46.62;101325.57;1700185;83;21060;-78
2022/02/14 10:37:10;;;;;;;6.75;3.58;;;;;;;4.46;47.47;101331.89;1698763;84;21459;-73
2022/02/14 10:39:37;;;;;;;6.08;3.58;;;;;;;4.59;46.32;101327.02;1672048;85;21135;-75
2022/02/14 10:42:10;;;;;;;6.50;3.67;;;;;;;4.66;46.42;101328.95;1670476;85;21026;-74
2022/02/14 10:47:28;;;;;;;5.40;3.40;;;;;;;4.83;45.78;101320.82;1679974;84;20966;-73
2022/02/14 10:50:18;;;;;;;5.90;3.40;;;;;;;4.92;45.90;101322.19;1693528;84;21562;-73
2022/02/14 10:52:53;;;;;;;5.83;3.20;;;;;;;5.01;45.82;101317.88;1691126;84;21367;-73
2022/02/14 10:55:27;;;;;;;5.67;3.40;;;;;;;5.05;44.60;101312.08;1678311;84;20985;-74
2022/02/14 10:57:56;;;;;;;5.67;3.50;;;;;;;5.06;45.14;101314.63;1665472;86;22661;-74
2022/02/14 11:00:37;;;;;;;6.50;3.37;;;;;;;5.15;45.13;101314.25;1683820;83;21030;-75
2022/02/14 11:03:11;;;;;;;5.50;3.05;;;;;;;5.32;45.26;101311.38;1704713;83;21000;-73
2022/02/14 11:05:33;;;;;;;6.15;3.27;;;;;;;5.50;43.92;101314.95;1669789;85;21007;-73
2022/02/14 11:08:01;;;;;;;9.28;3.58;;;;;;;5.51;43.21;101299.20;1683519;85;21133;-74
2022/02/14 11:10:28;;;;;;;6.33;4.45;;;;;;;5.47;43.60;101296.30;1699777;83;22670;-75
2022/02/14 11:12:57;;;;;;;5.92;3.50;;;;;;;5.56;45.20;101309.00;1706141;83;21027;-74
2022/02/14 11:15:30;;;;;;;5.15;2.70;;;;;;;5.74;44.45;101296.40;1687596;83;21011;-74
2022/02/14 11:18:08;;;;;;;4.62;2.87;;;;;;;5.88;43.80;101297.54;1711613;83;20991;-74
2022/02/14 11:20:35;;;;;;;6.35;3.45;;;;;;;5.93;42.39;101295.61;1712186;83;21000;-75
2022/02/14 11:23:02;;;;;;;5.72;3.30;;;;;;;5.96;42.56;101290.22;1698186;83;21831;-75
2022/02/14 11:25:53;;;;;;;5.28;3.42;;;;;;;5.94;41.77;101288.13;1707589;83;20984;-75
2022/02/14 11:28:42;;;;;;;5.37;3.50;;;;;;;5.92;41.81;101280.34;1695120;83;21056;-75